sensor_id;sensor_type;location;lat;lon;timestamp;pressure;altitude;pressure_sealevel;temperature;humidity
22753;BME280;11543;43.144;24.684;2023-09-07T00:00:46;99355.22;;;22.44;57.96
22753;BME280;11543;43.144;24.684;2023-09-07T00:03:14;99354.25;;;22.32;58.32
22753;BME280;11543;43.144;24.684;2023-09-07T00:05:41;99346.28;;;22.23;58.80
22753;BME280;11543;43.144;24.684;2023-09-07T00:08:07;99352.00;;;22.15;58.97
22753;BME280;11543;43.144;24.684;2023-09-07T00:10:33;99358.53;;;22.14;59.09
22753;BME280;11543;43.144;24.684;2023-09-07T00:13:02;99354.94;;;22.20;58.94
22753;BME280;11543;43.144;24.684;2023-09-07T00:15:29;99347.34;;;22.22;58.74
22753;BME280;11543;43.144;24.684;2023-09-07T00:17:55;99351.31;;;22.27;58.54
22753;BME280;11543;43.144;24.684;2023-09-07T00:20:22;99348.81;;;22.25;58.44
22753;BME280;11543;43.144;24.684;2023-09-07T00:22:49;99352.56;;;22.31;58.25
22753;BME280;11543;43.144;24.684;2023-09-07T00:25:15;99355.91;;;22.33;58.15
22753;BME280;11543;43.144;24.684;2023-09-07T00:27:41;99345.41;;;22.30;58.37
22753;BME280;11543;43.144;24.684;2023-09-07T00:30:07;99358.81;;;22.38;58.20
22753;BME280;11543;43.144;24.684;2023-09-07T00:32:36;99352.53;;;22.37;58.03
22753;BME280;11543;43.144;24.684;2023-09-07T00:35:02;99354.59;;;22.42;58.06
22753;BME280;11543;43.144;24.684;2023-09-07T00:37:27;99337.56;;;22.40;57.88
22753;BME280;11543;43.144;24.684;2023-09-07T00:39:53;99343.25;;;22.38;57.71
22753;BME280;11543;43.144;24.684;2023-09-07T00:42:18;99346.63;;;22.40;57.52
22753;BME280;11543;43.144;24.684;2023-09-07T00:44:44;99351.88;;;22.42;57.42
22753;BME280;11543;43.144;24.684;2023-09-07T00:47:10;99338.19;;;22.42;57.14
22753;BME280;11543;43.144;24.684;2023-09-07T00:49:37;99351.25;;;22.40;57.34
22753;BME280;11543;43.144;24.684;2023-09-07T00:52:05;99350.00;;;22.36;57.69
22753;BME280;11543;43.144;24.684;2023-09-07T00:54:31;99344.13;;;22.32;58.20
22753;BME280;11543;43.144;24.684;2023-09-07T00:56:57;99348.56;;;22.33;58.38
22753;BME280;11543;43.144;24.684;2023-09-07T00:59:23;99329.44;;;22.27;58.36
22753;BME280;11543;43.144;24.684;2023-09-07T01:01:50;99345.84;;;22.27;58.89
22753;BME280;11543;43.144;24.684;2023-09-07T01:04:17;99346.88;;;22.32;58.88
22753;BME280;11543;43.144;24.684;2023-09-07T01:06:47;99345.84;;;22.27;59.41
22753;BME280;11543;43.144;24.684;2023-09-07T01:09:21;99337.09;;;22.11;60.05
22753;BME280;11543;43.144;24.684;2023-09-07T01:11:48;99338.78;;;22.12;60.21
22753;BME280;11543;43.144;24.684;2023-09-07T01:14:15;99337.72;;;22.13;60.13
22753;BME280;11543;43.144;24.684;2023-09-07T01:16:41;99337.09;;;22.11;59.93
22753;BME280;11543;43.144;24.684;2023-09-07T01:19:06;99335.59;;;22.15;59.83
22753;BME280;11543;43.144;24.684;2023-09-07T01:21:37;99341.69;;;22.17;59.66
22753;BME280;11543;43.144;24.684;2023-09-07T01:24:08;99336.22;;;22.17;59.65
22753;BME280;11543;43.144;24.684;2023-09-07T01:26:35;99337.91;;;22.18;59.41
22753;BME280;11543;43.144;24.684;2023-09-07T01:29:05;99331.59;;;22.18;59.40
22753;BME280;11543;43.144;24.684;2023-09-07T01:31:38;99326.97;;;22.18;59.22
22753;BME280;11543;43.144;24.684;2023-09-07T01:34:07;99338.34;;;22.15;59.39
22753;BME280;11543;43.144;24.684;2023-09-07T01:36:39;99319.91;;;22.04;59.62
22753;BME280;11543;43.144;24.684;2023-09-07T01:39:07;99337.09;;;22.11;59.71
22753;BME280;11543;43.144;24.684;2023-09-07T01:41:35;99340.44;;;22.13;59.92
22753;BME280;11543;43.144;24.684;2023-09-07T01:44:01;99343.81;;;22.15;59.71
22753;BME280;11543;43.144;24.684;2023-09-07T01:46:28;99336.88;;;22.13;59.67
22753;BME280;11543;43.144;24.684;2023-09-07T01:48:54;99338.78;;;22.12;59.73
22753;BME280;11543;43.144;24.684;2023-09-07T01:51:20;99341.28;;;22.14;59.74
22753;BME280;11543;43.144;24.684;2023-09-07T01:53:48;99337.09;;;22.11;59.66
22753;BME280;11543;43.144;24.684;2023-09-07T01:56:21;99337.97;;;22.05;59.79
22753;BME280;11543;43.144;24.684;2023-09-07T01:58:46;99343.66;;;21.97;59.92
22753;BME280;11543;43.144;24.684;2023-09-07T02:01:25;99350.84;;;21.85;59.74
22753;BME280;11543;43.144;24.684;2023-09-07T02:03:51;99343.13;;;21.69;59.91
22753;BME280;11543;43.144;24.684;2023-09-07T02:06:18;99354.44;;;21.66;59.90
22753;BME280;11543;43.144;24.684;2023-09-07T02:08:47;99361.16;;;21.63;60.02
22753;BME280;11543;43.144;24.684;2023-09-07T02:11:19;99351.09;;;21.57;60.39
22753;BME280;11543;43.144;24.684;2023-09-07T02:13:48;99341.91;;;21.45;60.46
22753;BME280;11543;43.144;24.684;2023-09-07T02:16:13;99336.03;;;21.41;60.54
22753;BME280;11543;43.144;24.684;2023-09-07T02:18:39;99338.13;;;21.39;60.70
22753;BME280;11543;43.144;24.684;2023-09-07T02:21:15;99354.47;;;21.52;61.01
22753;BME280;11543;43.144;24.684;2023-09-07T02:23:52;99338.53;;;21.49;60.89
22753;BME280;11543;43.144;24.684;2023-09-07T02:26:28;99354.47;;;21.52;61.02
22753;BME280;11543;43.144;24.684;2023-09-07T02:29:18;99358.69;;;21.48;61.04
22753;BME280;11543;43.144;24.684;2023-09-07T02:31:46;99365.00;;;21.42;61.38
22753;BME280;11543;43.144;24.684;2023-09-07T02:34:15;99361.44;;;21.35;61.16
22753;BME280;11543;43.144;24.684;2023-09-07T02:36:45;99358.09;;;21.33;61.62
22753;BME280;11543;43.144;24.684;2023-09-07T02:39:11;99359.13;;;21.32;61.39
22753;BME280;11543;43.144;24.684;2023-09-07T02:41:38;99365.44;;;21.26;61.73
22753;BME280;11543;43.144;24.684;2023-09-07T02:44:09;99351.78;;;21.13;61.71
22753;BME280;11543;43.144;24.684;2023-09-07T02:46:44;99351.16;;;21.04;61.89
22753;BME280;11543;43.144;24.684;2023-09-07T02:49:11;99356.19;;;21.07;62.39
22753;BME280;11543;43.144;24.684;2023-09-07T02:52:01;99357.44;;;21.05;62.48
22753;BME280;11543;43.144;24.684;2023-09-07T02:54:33;99356.59;;;21.11;62.48
22753;BME280;11543;43.144;24.684;2023-09-07T02:57:08;99374.69;;;21.25;62.34
22753;BME280;11543;43.144;24.684;2023-09-07T02:59:33;99377.81;;;21.28;62.30
22753;BME280;11543;43.144;24.684;2023-09-07T03:01:59;99382.22;;;21.36;62.03
22753;BME280;11543;43.144;24.684;2023-09-07T03:04:26;99380.53;;;21.35;61.87
22753;BME280;11543;43.144;24.684;2023-09-07T03:06:51;99377.19;;;21.33;61.76
22753;BME280;11543;43.144;24.684;2023-09-07T03:09:17;99377.63;;;21.30;61.82
22753;BME280;11543;43.144;24.684;2023-09-07T03:12:01;99375.50;;;21.19;61.80
22753;BME280;11543;43.144;24.684;2023-09-07T03:14:29;99380.94;;;21.12;61.91
22753;BME280;11543;43.144;24.684;2023-09-07T03:16:54;99375.50;;;20.99;61.76
22753;BME280;11543;43.144;24.684;2023-09-07T03:19:24;99376.13;;;20.94;62.23
22753;BME280;11543;43.144;24.684;2023-09-07T03:21:52;99382.84;;;20.98;62.43
22753;BME280;11543;43.144;24.684;2023-09-07T03:24:20;99373.38;;;20.94;62.58
22753;BME280;11543;43.144;24.684;2023-09-07T03:26:47;99372.56;;;21.01;62.58
22753;BME280;11543;43.144;24.684;2023-09-07T03:29:15;99357.03;;;20.88;62.50
22753;BME280;11543;43.144;24.684;2023-09-07T03:31:44;99365.19;;;20.81;62.27
22753;BME280;11543;43.144;24.684;2023-09-07T03:34:11;99365.78;;;20.70;62.23
22753;BME280;11543;43.144;24.684;2023-09-07T03:36:36;99383.81;;;20.71;62.18
22753;BME280;11543;43.144;24.684;2023-09-07T03:39:02;99368.94;;;20.67;62.40
22753;BME280;11543;43.144;24.684;2023-09-07T03:41:28;99380.31;;;20.84;62.17
22753;BME280;11543;43.144;24.684;2023-09-07T03:43:56;99379.47;;;20.83;62.21
22753;BME280;11543;43.144;24.684;2023-09-07T03:46:24;99375.44;;;20.66;62.15
22753;BME280;11543;43.144;24.684;2023-09-07T03:48:50;99376.88;;;20.62;62.22
22753;BME280;11543;43.144;24.684;2023-09-07T03:51:17;99367.88;;;20.61;62.44
22753;BME280;11543;43.144;24.684;2023-09-07T03:53:43;99375.22;;;20.67;62.13
22753;BME280;11543;43.144;24.684;2023-09-07T03:56:09;99386.34;;;20.73;62.54
22753;BME280;11543;43.144;24.684;2023-09-07T03:58:36;99385.97;;;20.82;62.28
22753;BME280;11543;43.144;24.684;2023-09-07T04:01:04;99383.25;;;20.89;62.16
22753;BME280;11543;43.144;24.684;2023-09-07T04:03:33;99393.31;;;21.02;61.88
22753;BME280;11543;43.144;24.684;2023-09-07T04:06:02;99386.19;;;21.01;62.14
22753;BME280;11543;43.144;24.684;2023-09-07T04:08:31;99380.94;;;21.06;61.87
22753;BME280;11543;43.144;24.684;2023-09-07T04:10:57;99381.78;;;21.06;61.83
22753;BME280;11543;43.144;24.684;2023-09-07T04:13:24;99382.00;;;21.05;61.82
22753;BME280;11543;43.144;24.684;2023-09-07T04:15:50;99400.47;;;21.16;61.70
22753;BME280;11543;43.144;24.684;2023-09-07T04:18:16;99395.63;;;21.11;61.61
22753;BME280;11543;43.144;24.684;2023-09-07T04:20:43;99396.91;;;21.15;61.71
22753;BME280;11543;43.144;24.684;2023-09-07T04:23:10;99407.44;;;21.25;61.66
22753;BME280;11543;43.144;24.684;2023-09-07T04:25:37;99399.84;;;21.14;61.70
22753;BME280;11543;43.144;24.684;2023-09-07T04:28:08;99412.69;;;21.26;61.42
22753;BME280;11543;43.144;24.684;2023-09-07T04:30:39;99399.88;;;21.27;61.24
22753;BME280;11543;43.144;24.684;2023-09-07T04:33:06;99399.03;;;21.26;61.16
22753;BME280;11543;43.144;24.684;2023-09-07T04:35:33;99399.25;;;21.25;61.31
22753;BME280;11543;43.144;24.684;2023-09-07T04:38:00;99411.22;;;21.24;61.64
22753;BME280;11543;43.144;24.684;2023-09-07T04:40:26;99420.19;;;21.18;62.38
22753;BME280;11543;43.144;24.684;2023-09-07T04:42:52;99409.06;;;20.99;62.98
22753;BME280;11543;43.144;24.684;2023-09-07T04:45:21;99405.72;;;20.97;63.38
22753;BME280;11543;43.144;24.684;2023-09-07T04:47:49;99405.06;;;20.95;64.23
22753;BME280;11543;43.144;24.684;2023-09-07T04:50:16;99421.66;;;21.01;64.58
22753;BME280;11543;43.144;24.684;2023-09-07T04:52:43;99435.31;;;21.07;64.52
22753;BME280;11543;43.144;24.684;2023-09-07T04:55:09;99434.88;;;21.10;64.67
22753;BME280;11543;43.144;24.684;2023-09-07T04:57:38;99414.31;;;21.01;64.69
22753;BME280;11543;43.144;24.684;2023-09-07T05:00:06;99440.97;;;21.12;64.43
22753;BME280;11543;43.144;24.684;2023-09-07T05:02:33;99439.50;;;21.16;64.33
22753;BME280;11543;43.144;24.684;2023-09-07T05:05:04;99433.44;;;21.21;64.08
22753;BME280;11543;43.144;24.684;2023-09-07T05:07:30;99415.78;;;21.17;63.94
22753;BME280;11543;43.144;24.684;2023-09-07T05:09:56;99428.38;;;21.18;63.16
22753;BME280;11543;43.144;24.684;2023-09-07T05:12:21;99427.97;;;21.21;62.49
22753;BME280;11543;43.144;24.684;2023-09-07T05:14:47;99446.91;;;21.29;61.93
22753;BME280;11543;43.144;24.684;2023-09-07T05:17:14;99417.47;;;21.18;61.85
22753;BME280;11543;43.144;24.684;2023-09-07T05:19:41;99435.13;;;21.35;61.61
22753;BME280;11543;43.144;24.684;2023-09-07T05:22:09;99427.16;;;21.34;61.13
22753;BME280;11543;43.144;24.684;2023-09-07T05:24:41;99431.78;;;21.33;60.56
22753;BME280;11543;43.144;24.684;2023-09-07T05:27:07;99421.28;;;21.30;60.39
22753;BME280;11543;43.144;24.684;2023-09-07T05:29:33;99425.47;;;21.33;60.17
22753;BME280;11543;43.144;24.684;2023-09-07T05:31:59;99427.16;;;21.40;60.05
22753;BME280;11543;43.144;24.684;2023-09-07T05:34:28;99440.59;;;21.48;60.20
22753;BME280;11543;43.144;24.684;2023-09-07T05:36:55;99438.50;;;21.50;60.63
22753;BME280;11543;43.144;24.684;2023-09-07T05:39:22;99427.56;;;21.50;59.87
22753;BME280;11543;43.144;24.684;2023-09-07T05:41:49;99446.03;;;21.61;59.71
22753;BME280;11543;43.144;24.684;2023-09-07T05:44:15;99444.81;;;21.71;59.64
22753;BME280;11543;43.144;24.684;2023-09-07T05:46:41;99452.78;;;21.79;59.87
22753;BME280;11543;43.144;24.684;2023-09-07T05:49:07;99433.03;;;21.77;59.73
22753;BME280;11543;43.144;24.684;2023-09-07T05:51:33;99443.09;;;21.83;59.51
22753;BME280;11543;43.144;24.684;2023-09-07T05:53:58;99450.00;;;21.92;58.96
22753;BME280;11543;43.144;24.684;2023-09-07T05:56:24;99444.75;;;21.90;58.12
22753;BME280;11543;43.144;24.684;2023-09-07T05:58:50;99458.19;;;21.99;58.15
22753;BME280;11543;43.144;24.684;2023-09-07T06:01:17;99451.06;;;21.98;57.78
22753;BME280;11543;43.144;24.684;2023-09-07T06:03:45;99452.13;;;22.03;57.85
22753;BME280;11543;43.144;24.684;2023-09-07T06:06:12;99457.34;;;22.11;57.71
22753;BME280;11543;43.144;24.684;2023-09-07T06:08:38;99451.44;;;22.14;57.71
22753;BME280;11543;43.144;24.684;2023-09-07T06:11:04;99449.34;;;22.16;57.71
22753;BME280;11543;43.144;24.684;2023-09-07T06:13:34;99453.09;;;22.29;57.73
22753;BME280;11543;43.144;24.684;2023-09-07T06:15:59;99449.47;;;22.35;57.76
22753;BME280;11543;43.144;24.684;2023-09-07T06:18:26;99465.22;;;22.46;57.92
22753;BME280;11543;43.144;24.684;2023-09-07T06:20:51;99464.34;;;22.52;57.88
22753;BME280;11543;43.144;24.684;2023-09-07T06:25:42;99453.81;;;22.62;57.66
22753;BME280;11543;43.144;24.684;2023-09-07T06:28:07;99468.47;;;22.74;57.45
22753;BME280;11543;43.144;24.684;2023-09-07T06:30:33;99465.91;;;22.79;57.33
22753;BME280;11543;43.144;24.684;2023-09-07T06:32:59;99474.97;;;22.86;57.13
22753;BME280;11543;43.144;24.684;2023-09-07T06:35:25;99466.31;;;22.90;56.79
22753;BME280;11543;43.144;24.684;2023-09-07T06:37:50;99460.56;;;22.98;56.39
22753;BME280;11543;43.144;24.684;2023-09-07T06:40:16;99465.16;;;23.04;56.04
22753;BME280;11543;43.144;24.684;2023-09-07T06:42:43;99465.34;;;23.09;55.18
22753;BME280;11543;43.144;24.684;2023-09-07T06:45:09;99461.72;;;23.15;54.59
22753;BME280;11543;43.144;24.684;2023-09-07T06:47:35;99475.75;;;23.25;54.74
22753;BME280;11543;43.144;24.684;2023-09-07T06:50:01;99461.44;;;23.23;54.78
22753;BME280;11543;43.144;24.684;2023-09-07T06:52:27;99455.94;;;23.30;54.74
22753;BME280;11543;43.144;24.684;2023-09-07T06:54:53;99473.13;;;23.43;54.88
22753;BME280;11543;43.144;24.684;2023-09-07T06:57:19;99473.47;;;23.54;54.76
22753;BME280;11543;43.144;24.684;2023-09-07T06:59:45;99478.06;;;23.60;54.60
22753;BME280;11543;43.144;24.684;2023-09-07T07:02:10;99471.09;;;23.64;54.12
22753;BME280;11543;43.144;24.684;2023-09-07T07:04:36;99456.53;;;23.63;54.11
22753;BME280;11543;43.144;24.684;2023-09-07T07:07:03;99459.22;;;23.70;53.64
22753;BME280;11543;43.144;24.684;2023-09-07T07:09:30;99463.13;;;23.80;53.32
22753;BME280;11543;43.144;24.684;2023-09-07T07:11:56;99474.19;;;23.92;52.88
22753;BME280;11543;43.144;24.684;2023-09-07T07:14:22;99464.66;;;23.95;52.61
22753;BME280;11543;43.144;24.684;2023-09-07T07:16:47;99470.53;;;23.98;52.35
22753;BME280;11543;43.144;24.684;2023-09-07T07:19:13;99452.03;;;23.94;52.23
22753;BME280;11543;43.144;24.684;2023-09-07T07:21:39;99472.38;;;24.04;51.80
22753;BME280;11543;43.144;24.684;2023-09-07T07:24:05;99464.16;;;24.04;51.51
22753;BME280;11543;43.144;24.684;2023-09-07T07:26:34;99481.06;;;24.20;50.50
22753;BME280;11543;43.144;24.684;2023-09-07T07:29:00;99480.59;;;24.23;50.84
22753;BME280;11543;43.144;24.684;2023-09-07T07:31:26;99473.75;;;24.13;50.40
22753;BME280;11543;43.144;24.684;2023-09-07T07:33:53;99465.69;;;24.19;50.22
22753;BME280;11543;43.144;24.684;2023-09-07T07:36:18;99476.41;;;24.20;50.37
22753;BME280;11543;43.144;24.684;2023-09-07T07:38:44;99473.19;;;24.30;50.32
22753;BME280;11543;43.144;24.684;2023-09-07T07:41:12;99485.78;;;24.37;49.83
22753;BME280;11543;43.144;24.684;2023-09-07T07:43:38;99477.47;;;24.44;50.05
22753;BME280;11543;43.144;24.684;2023-09-07T07:46:03;99477.16;;;24.52;50.07
22753;BME280;11543;43.144;24.684;2023-09-07T07:48:29;99479.13;;;24.63;49.84
22753;BME280;11543;43.144;24.684;2023-09-07T07:50:55;99480.63;;;24.77;49.13
22753;BME280;11543;43.144;24.684;2023-09-07T07:53:21;99462.63;;;24.82;49.23
22753;BME280;11543;43.144;24.684;2023-09-07T07:55:50;99471.91;;;24.99;49.04
22753;BME280;11543;43.144;24.684;2023-09-07T07:58:16;99454.50;;;25.05;49.26
22753;BME280;11543;43.144;24.684;2023-09-07T08:00:42;99473.22;;;25.26;48.90
22753;BME280;11543;43.144;24.684;2023-09-07T08:03:11;99467.50;;;25.39;49.94
22753;BME280;11543;43.144;24.684;2023-09-07T08:05:42;99433.22;;;25.42;49.27
22753;BME280;11543;43.144;24.684;2023-09-07T08:08:10;99463.63;;;25.70;48.94
22753;BME280;11543;43.144;24.684;2023-09-07T08:10:37;99449.28;;;25.80;48.90
22753;BME280;11543;43.144;24.684;2023-09-07T08:13:06;99450.81;;;25.99;48.49
22753;BME280;11543;43.144;24.684;2023-09-07T08:15:34;99431.25;;;26.08;47.54
22753;BME280;11543;43.144;24.684;2023-09-07T08:18:00;99450.59;;;26.36;46.98
22753;BME280;11543;43.144;24.684;2023-09-07T08:20:28;99444.81;;;26.49;46.68
22753;BME280;11543;43.144;24.684;2023-09-07T08:22:57;99433.16;;;26.59;46.32
22753;BME280;11543;43.144;24.684;2023-09-07T08:25:28;99441.72;;;26.74;46.54
22753;BME280;11543;43.144;24.684;2023-09-07T08:28:15;99436.06;;;26.81;46.19
22753;BME280;11543;43.144;24.684;2023-09-07T08:30:49;99422.91;;;26.83;46.02
22753;BME280;11543;43.144;24.684;2023-09-07T08:33:25;99432.34;;;26.99;46.57
22753;BME280;11543;43.144;24.684;2023-09-07T08:36:03;99438.88;;;27.09;46.02
22753;BME280;11543;43.144;24.684;2023-09-07T08:38:30;99432.25;;;27.10;45.70
22753;BME280;11543;43.144;24.684;2023-09-07T08:41:01;99432.03;;;27.28;45.55
22753;BME280;11543;43.144;24.684;2023-09-07T08:43:32;99426.03;;;27.32;44.95
22753;BME280;11543;43.144;24.684;2023-09-07T08:46:18;99430.53;;;27.38;45.64
22753;BME280;11543;43.144;24.684;2023-09-07T08:48:50;99421.84;;;27.46;46.22
22753;BME280;11543;43.144;24.684;2023-09-07T08:51:18;99433.72;;;27.63;45.36
22753;BME280;11543;43.144;24.684;2023-09-07T08:53:45;99418.53;;;27.77;44.91
22753;BME280;11543;43.144;24.684;2023-09-07T08:56:14;99407.91;;;27.86;45.36
22753;BME280;11543;43.144;24.684;2023-09-07T08:58:41;99413.97;;;28.05;45.12
22753;BME280;11543;43.144;24.684;2023-09-07T09:01:08;99416.34;;;28.18;45.60
22753;BME280;11543;43.144;24.684;2023-09-07T09:03:37;99419.41;;;28.38;44.42
22753;BME280;11543;43.144;24.684;2023-09-07T09:06:04;99421.81;;;28.57;44.00
22753;BME280;11543;43.144;24.684;2023-09-07T09:08:47;99419.72;;;28.64;42.96
22753;BME280;11543;43.144;24.684;2023-09-07T09:11:15;99404.34;;;28.73;43.24
22753;BME280;11543;43.144;24.684;2023-09-07T09:13:41;99398.72;;;28.84;42.41
22753;BME280;11543;43.144;24.684;2023-09-07T09:16:07;99409.59;;;28.96;42.89
22753;BME280;11543;43.144;24.684;2023-09-07T09:18:33;99407.47;;;29.03;41.90
22753;BME280;11543;43.144;24.684;2023-09-07T09:20:59;99411.41;;;29.12;42.09
22753;BME280;11543;43.144;24.684;2023-09-07T09:23:36;99410.34;;;29.18;41.66
22753;BME280;11543;43.144;24.684;2023-09-07T09:26:03;99404.88;;;29.24;41.59
22753;BME280;11543;43.144;24.684;2023-09-07T09:28:34;99401.94;;;29.35;40.74
22753;BME280;11543;43.144;24.684;2023-09-07T09:31:01;99392.66;;;29.46;40.74
22753;BME280;11543;43.144;24.684;2023-09-07T09:33:30;99383.59;;;29.51;39.85
22753;BME280;11543;43.144;24.684;2023-09-07T09:35:56;99396.38;;;29.62;40.20
22753;BME280;11543;43.144;24.684;2023-09-07T09:38:22;99390.88;;;29.67;40.42
22753;BME280;11543;43.144;24.684;2023-09-07T09:40:49;99384.84;;;29.75;39.70
22753;BME280;11543;43.144;24.684;2023-09-07T09:43:15;99391.56;;;29.90;39.31
22753;BME280;11543;43.144;24.684;2023-09-07T09:45:41;99383.31;;;29.95;39.20
22753;BME280;11543;43.144;24.684;2023-09-07T09:48:08;99394.47;;;30.05;38.96
22753;BME280;11543;43.144;24.684;2023-09-07T09:50:37;99385.63;;;30.13;39.31
22753;BME280;11543;43.144;24.684;2023-09-07T09:53:10;99372.66;;;30.19;39.99
22753;BME280;11543;43.144;24.684;2023-09-07T09:55:45;99379.13;;;30.39;38.84
22753;BME280;11543;43.144;24.684;2023-09-07T09:58:15;99374.75;;;30.54;38.91
22753;BME280;11543;43.144;24.684;2023-09-07T10:00:46;99369.25;;;30.64;38.97
22753;BME280;11543;43.144;24.684;2023-09-07T10:03:33;99353.78;;;30.78;38.04
22753;BME280;11543;43.144;24.684;2023-09-07T10:06:17;99365.44;;;31.00;36.95
22753;BME280;11543;43.144;24.684;2023-09-07T10:08:59;99360.44;;;31.02;36.66
22753;BME280;11543;43.144;24.684;2023-09-07T10:11:38;99346.31;;;31.04;36.34
22753;BME280;11543;43.144;24.684;2023-09-07T10:14:07;99349.94;;;31.15;36.84
22753;BME280;11543;43.144;24.684;2023-09-07T10:16:53;99359.13;;;31.35;36.86
22753;BME280;11543;43.144;24.684;2023-09-07T10:19:25;99340.53;;;31.41;36.40
22753;BME280;11543;43.144;24.684;2023-09-07T10:21:54;99352.16;;;31.58;36.95
22753;BME280;11543;43.144;24.684;2023-09-07T10:24:30;99344.09;;;31.67;35.82
22753;BME280;11543;43.144;24.684;2023-09-07T10:27:08;99330.50;;;31.65;36.54
22753;BME280;11543;43.144;24.684;2023-09-07T10:29:44;99329.38;;;31.82;36.30
22753;BME280;11543;43.144;24.684;2023-09-07T10:32:11;99334.63;;;31.88;34.86
22753;BME280;11543;43.144;24.684;2023-09-07T10:34:42;99343.19;;;31.97;35.32
22753;BME280;11543;43.144;24.684;2023-09-07T10:37:13;99348.16;;;32.10;35.05
22753;BME280;11543;43.144;24.684;2023-09-07T10:39:40;99340.88;;;32.29;33.63
22753;BME280;11543;43.144;24.684;2023-09-07T10:42:24;99329.19;;;32.33;33.41
22753;BME280;11543;43.144;24.684;2023-09-07T10:44:54;99309.34;;;32.54;32.78
22753;BME280;11543;43.144;24.684;2023-09-07T10:47:21;99321.72;;;32.72;32.32
22753;BME280;11543;43.144;24.684;2023-09-07T10:49:48;99327.25;;;32.82;32.49
22753;BME280;11543;43.144;24.684;2023-09-07T10:52:14;99322.81;;;32.76;32.65
22753;BME280;11543;43.144;24.684;2023-09-07T10:54:41;99337.28;;;32.78;33.11
22753;BME280;11543;43.144;24.684;2023-09-07T10:57:13;99316.47;;;32.71;32.90
22753;BME280;11543;43.144;24.684;2023-09-07T10:59:47;99316.16;;;32.72;34.00
22753;BME280;11543;43.144;24.684;2023-09-07T11:02:14;99324.78;;;32.71;33.13
22753;BME280;11543;43.144;24.684;2023-09-07T11:04:40;99323.47;;;32.63;32.85
22753;BME280;11543;43.144;24.684;2023-09-07T11:07:07;99320.13;;;32.61;33.01
22753;BME280;11543;43.144;24.684;2023-09-07T11:09:43;99316.25;;;32.62;33.33
22753;BME280;11543;43.144;24.684;2023-09-07T11:12:13;99305.72;;;32.59;33.10
22753;BME280;11543;43.144;24.684;2023-09-07T11:14:41;99294.59;;;32.59;32.88
22753;BME280;11543;43.144;24.684;2023-09-07T11:17:06;99298.50;;;32.58;32.51
22753;BME280;11543;43.144;24.684;2023-09-07T11:19:33;99307.38;;;32.60;33.48
22753;BME280;11543;43.144;24.684;2023-09-07T11:21:59;99295.41;;;32.59;32.63
22753;BME280;11543;43.144;24.684;2023-09-07T11:24:26;99306.78;;;32.63;32.74
22753;BME280;11543;43.144;24.684;2023-09-07T11:26:57;99300.13;;;32.64;32.14
22753;BME280;11543;43.144;24.684;2023-09-07T11:29:24;99291.19;;;32.67;32.50
22753;BME280;11543;43.144;24.684;2023-09-07T11:31:51;99284.56;;;32.63;32.60
22753;BME280;11543;43.144;24.684;2023-09-07T11:34:17;99289.53;;;32.66;32.11
22753;BME280;11543;43.144;24.684;2023-09-07T11:36:43;99287.56;;;32.72;31.85
22753;BME280;11543;43.144;24.684;2023-09-07T11:39:16;99283.06;;;32.76;32.18
22753;BME280;11543;43.144;24.684;2023-09-07T11:41:44;99274.41;;;32.87;32.14
22753;BME280;11543;43.144;24.684;2023-09-07T11:44:11;99269.31;;;32.94;31.75
22753;BME280;11543;43.144;24.684;2023-09-07T11:46:42;99279.81;;;33.08;31.82
22753;BME280;11543;43.144;24.684;2023-09-07T11:49:09;99274.19;;;33.13;31.30
22753;BME280;11543;43.144;24.684;2023-09-07T11:51:36;99258.19;;;33.29;31.17
22753;BME280;11543;43.144;24.684;2023-09-07T11:54:04;99262.78;;;33.43;31.13
22753;BME280;11543;43.144;24.684;2023-09-07T11:56:33;99273.38;;;33.41;31.63
22753;BME280;11543;43.144;24.684;2023-09-07T11:59:05;99267.22;;;33.44;31.56
22753;BME280;11543;43.144;24.684;2023-09-07T12:01:32;99257.34;;;33.28;31.64
22753;BME280;11543;43.144;24.684;2023-09-07T12:04:00;99248.53;;;33.21;31.79
22753;BME280;11543;43.144;24.684;2023-09-07T12:06:30;99251.91;;;33.18;32.27
22753;BME280;11543;43.144;24.684;2023-09-07T12:09:04;99260.53;;;33.16;32.14
22753;BME280;11543;43.144;24.684;2023-09-07T12:11:36;99261.25;;;33.27;32.22
22753;BME280;11543;43.144;24.684;2023-09-07T12:14:22;99252.72;;;33.18;31.44
22753;BME280;11543;43.144;24.684;2023-09-07T12:16:56;99274.03;;;33.28;31.86
22753;BME280;11543;43.144;24.684;2023-09-07T12:19:25;99253.06;;;33.12;31.80
22753;BME280;11543;43.144;24.684;2023-09-07T12:25:04;99238.72;;;33.00;32.27
22753;BME280;11543;43.144;24.684;2023-09-07T12:27:50;99249.69;;;33.15;31.89
22753;BME280;11543;43.144;24.684;2023-09-07T12:30:36;99234.16;;;33.14;32.01
22753;BME280;11543;43.144;24.684;2023-09-07T12:33:05;99245.63;;;33.36;31.23
22753;BME280;11543;43.144;24.684;2023-09-07T12:35:32;99252.19;;;33.45;31.46
22753;BME280;11543;43.144;24.684;2023-09-07T12:38:00;99232.28;;;33.33;31.06
22753;BME280;11543;43.144;24.684;2023-09-07T12:40:32;99235.09;;;33.28;31.09
22753;BME280;11543;43.144;24.684;2023-09-07T12:42:58;99228.81;;;33.17;31.00
22753;BME280;11543;43.144;24.684;2023-09-07T12:52:49;99231.66;;;33.12;31.72
22753;BME280;11543;43.144;24.684;2023-09-07T12:55:26;99228.28;;;33.15;31.20
22753;BME280;11543;43.144;24.684;2023-09-07T12:57:59;99217.09;;;33.20;31.46
22753;BME280;11543;43.144;24.684;2023-09-07T13:07:22;99239.09;;;33.70;30.06
22753;BME280;11543;43.144;24.684;2023-09-07T13:10:04;99231.22;;;33.77;30.04
22753;BME280;11543;43.144;24.684;2023-09-07T13:15:21;99216.56;;;33.95;29.78
22753;BME280;11543;43.144;24.684;2023-09-07T13:17:50;99226.94;;;34.08;30.02
22753;BME280;11543;43.144;24.684;2023-09-07T13:20:16;99214.69;;;34.09;29.79